sensor_id;sensor_type;location;lat;lon;timestamp;pressure;altitude;pressure_sealevel;temperature;humidity
75192;BME280;63771;52.580;9.734;2023-08-07T00:01:02;100267.00;;;15.27;100.00
75192;BME280;63771;52.580;9.734;2023-08-07T00:03:27;100255.75;;;15.25;100.00
75192;BME280;63771;52.580;9.734;2023-08-07T00:05:53;100255.75;;;15.25;100.00
75192;BME280;63771;52.580;9.734;2023-08-07T00:08:18;100252.19;;;15.23;100.00
75192;BME280;63771;52.580;9.734;2023-08-07T00:10:43;100253.00;;;15.22;100.00
75192;BME280;63771;52.580;9.734;2023-08-07T00:13:09;100256.13;;;15.16;100.00
75192;BME280;63771;52.580;9.734;2023-08-07T00:15:34;100256.19;;;15.18;100.00
75192;BME280;63771;52.580;9.734;2023-08-07T00:18:02;100257.19;;;15.20;100.00
75192;BME280;63771;52.580;9.734;2023-08-07T00:20:27;100249.47;;;15.20;100.00
75192;BME280;63771;52.580;9.734;2023-08-07T00:22:52;100250.03;;;15.14;100.00
75192;BME280;63771;52.580;9.734;2023-08-07T00:25:18;100250.38;;;15.20;100.00
75192;BME280;63771;52.580;9.734;2023-08-07T00:27:43;100249.47;;;15.20;100.00
75192;BME280;63771;52.580;9.734;2023-08-07T00:30:09;100250.09;;;15.16;100.00
75192;BME280;63771;52.580;9.734;2023-08-07T00:32:35;100254.38;;;15.15;100.00
75192;BME280;63771;52.580;9.734;2023-08-07T00:35:00;100260.38;;;15.16;100.00
75192;BME280;63771;52.580;9.734;2023-08-07T00:37:25;100263.56;;;15.11;100.00
75192;BME280;63771;52.580;9.734;2023-08-07T00:39:51;100260.03;;;15.09;100.00
75192;BME280;63771;52.580;9.734;2023-08-07T00:42:16;100258.03;;;15.04;100.00
75192;BME280;63771;52.580;9.734;2023-08-07T00:44:41;100263.03;;;15.02;100.00
75192;BME280;63771;52.580;9.734;2023-08-07T00:47:07;100263.94;;;15.03;100.00
75192;BME280;63771;52.580;9.734;2023-08-07T00:49:32;100253.75;;;15.04;100.00
75192;BME280;63771;52.580;9.734;2023-08-07T00:51:58;100259.44;;;14.99;100.00
75192;BME280;63771;52.580;9.734;2023-08-07T00:54:25;100257.03;;;15.02;100.00
75192;BME280;63771;52.580;9.734;2023-08-07T00:56:50;100262.25;;;15.03;100.00
75192;BME280;63771;52.580;9.734;2023-08-07T00:59:16;100267.38;;;15.03;100.00
75192;BME280;63771;52.580;9.734;2023-08-07T01:01:41;100258.03;;;15.04;100.00
75192;BME280;63771;52.580;9.734;2023-08-07T01:04:07;100262.91;;;14.99;100.00
75192;BME280;63771;52.580;9.734;2023-08-07T01:06:32;100258.56;;;14.98;100.00
75192;BME280;63771;52.580;9.734;2023-08-07T01:08:58;100257.91;;;15.02;100.00
75192;BME280;63771;52.580;9.734;2023-08-07T01:11:48;100253.84;;;15.06;100.00
75192;BME280;63771;52.580;9.734;2023-08-07T01:17:15;100270.31;;;15.09;100.00
75192;BME280;63771;52.580;9.734;2023-08-07T01:19:41;100261.81;;;15.10;100.00
75192;BME280;63771;52.580;9.734;2023-08-07T01:22:14;100258.44;;;15.11;100.00
75192;BME280;63771;52.580;9.734;2023-08-07T01:24:42;100256.66;;;15.10;100.00
75192;BME280;63771;52.580;9.734;2023-08-07T01:32:34;100253.56;;;15.01;100.00
75192;BME280;63771;52.580;9.734;2023-08-07T01:35:02;100252.06;;;15.05;100.00
75192;BME280;63771;52.580;9.734;2023-08-07T01:37:30;100247.97;;;15.08;100.00
75192;BME280;63771;52.580;9.734;2023-08-07T01:39:58;100246.31;;;15.09;100.00
75192;BME280;63771;52.580;9.734;2023-08-07T01:42:25;100249.41;;;15.03;100.00
75192;BME280;63771;52.580;9.734;2023-08-07T01:44:51;100248.16;;;14.97;100.00
75192;BME280;63771;52.580;9.734;2023-08-07T01:47:16;100243.91;;;14.97;100.00
75192;BME280;63771;52.580;9.734;2023-08-07T01:49:41;100248.91;;;14.94;100.00
75192;BME280;63771;52.580;9.734;2023-08-07T01:52:08;100247.91;;;14.92;100.00
75192;BME280;63771;52.580;9.734;2023-08-07T01:54:33;100248.56;;;14.88;100.00
75192;BME280;63771;52.580;9.734;2023-08-07T01:56:58;100244.47;;;14.92;100.00
75192;BME280;63771;52.580;9.734;2023-08-07T01:59:24;100247.13;;;14.93;100.00
75192;BME280;63771;52.580;9.734;2023-08-07T02:01:49;100249.06;;;14.97;100.00
75192;BME280;63771;52.580;9.734;2023-08-07T02:04:14;100241.09;;;14.93;100.00
75192;BME280;63771;52.580;9.734;2023-08-07T02:06:40;100228.09;;;14.90;100.00
75192;BME280;63771;52.580;9.734;2023-08-07T02:09:05;100240.94;;;14.90;100.00
75192;BME280;63771;52.580;9.734;2023-08-07T02:11:30;100234.81;;;14.87;100.00
75192;BME280;63771;52.580;9.734;2023-08-07T02:13:56;100232.97;;;14.85;100.00
75192;BME280;63771;52.580;9.734;2023-08-07T02:16:21;100236.88;;;14.78;100.00
75192;BME280;63771;52.580;9.734;2023-08-07T02:18:46;100240.31;;;14.79;100.00
75192;BME280;63771;52.580;9.734;2023-08-07T02:21:11;100236.34;;;14.84;100.00
75192;BME280;63771;52.580;9.734;2023-08-07T02:23:37;100242.16;;;14.81;100.00
75192;BME280;63771;52.580;9.734;2023-08-07T02:26:02;100242.69;;;14.76;100.00
75192;BME280;63771;52.580;9.734;2023-08-07T02:28:27;100238.81;;;14.68;100.00
75192;BME280;63771;52.580;9.734;2023-08-07T02:30:53;100238.56;;;14.63;100.00
75192;BME280;63771;52.580;9.734;2023-08-07T02:33:19;100245.38;;;14.63;100.00
75192;BME280;63771;52.580;9.734;2023-08-07T02:35:44;100241.81;;;14.60;100.00
75192;BME280;63771;52.580;9.734;2023-08-07T02:38:10;100246.94;;;14.60;100.00
75192;BME280;63771;52.580;9.734;2023-08-07T02:40:36;100248.56;;;14.58;100.00
75192;BME280;63771;52.580;9.734;2023-08-07T02:43:01;100248.56;;;14.58;100.00
75192;BME280;63771;52.580;9.734;2023-08-07T02:45:26;100249.25;;;14.56;100.00
75192;BME280;63771;52.580;9.734;2023-08-07T02:47:52;100243.06;;;14.52;100.00
75192;BME280;63771;52.580;9.734;2023-08-07T02:50:17;100255.09;;;14.53;100.00
75192;BME280;63771;52.580;9.734;2023-08-07T02:52:42;100251.75;;;14.54;100.00
75192;BME280;63771;52.580;9.734;2023-08-07T02:55:08;100252.34;;;14.50;100.00
75192;BME280;63771;52.580;9.734;2023-08-07T02:57:33;100246.25;;;14.48;100.00
75192;BME280;63771;52.580;9.734;2023-08-07T02:59:58;100246.44;;;14.51;100.00
75192;BME280;63771;52.580;9.734;2023-08-07T03:02:24;100248.81;;;14.48;100.00
75192;BME280;63771;52.580;9.734;2023-08-07T03:04:49;100246.34;;;14.50;100.00
75192;BME280;63771;52.580;9.734;2023-08-07T03:07:14;100252.47;;;14.52;100.00
75192;BME280;63771;52.580;9.734;2023-08-07T03:09:40;100258.75;;;14.57;100.00
75192;BME280;63771;52.580;9.734;2023-08-07T03:12:05;100250.16;;;14.56;100.00
75192;BME280;63771;52.580;9.734;2023-08-07T03:14:31;100262.00;;;14.54;100.00
75192;BME280;63771;52.580;9.734;2023-08-07T03:16:56;100259.44;;;14.54;100.00
75192;BME280;63771;52.580;9.734;2023-08-07T03:19:22;100251.94;;;14.57;100.00
75192;BME280;63771;52.580;9.734;2023-08-07T03:21:47;100255.31;;;14.56;100.00
75192;BME280;63771;52.580;9.734;2023-08-07T03:24:12;100251.03;;;14.57;100.00
75192;BME280;63771;52.580;9.734;2023-08-07T03:26:38;100246.69;;;14.56;100.00
75192;BME280;63771;52.580;9.734;2023-08-07T03:29:03;100248.56;;;14.58;100.00
75192;BME280;63771;52.580;9.734;2023-08-07T03:31:28;100250.16;;;14.56;100.00
75192;BME280;63771;52.580;9.734;2023-08-07T03:33:54;100254.22;;;14.53;100.00
75192;BME280;63771;52.580;9.734;2023-08-07T03:36:19;100266.25;;;14.54;100.00
75192;BME280;63771;52.580;9.734;2023-08-07T03:38:44;100270.50;;;14.53;100.00
75192;BME280;63771;52.580;9.734;2023-08-07T03:41:10;100258.81;;;14.58;100.00
75192;BME280;63771;52.580;9.734;2023-08-07T03:43:35;100268.28;;;14.59;100.00
75192;BME280;63771;52.580;9.734;2023-08-07T03:46:00;100269.38;;;14.63;100.00
75192;BME280;63771;52.580;9.734;2023-08-07T03:48:26;100269.63;;;14.68;100.00
75192;BME280;63771;52.580;9.734;2023-08-07T03:50:51;100266.28;;;14.69;100.00
75192;BME280;63771;52.580;9.734;2023-08-07T03:53:17;100267.84;;;14.67;100.00
75192;BME280;63771;52.580;9.734;2023-08-07T03:55:42;100273.16;;;14.70;100.00
75192;BME280;63771;52.580;9.734;2023-08-07T03:58:08;100269.09;;;14.73;100.00
75192;BME280;63771;52.580;9.734;2023-08-07T04:00:33;100274.13;;;14.72;100.00
75192;BME280;63771;52.580;9.734;2023-08-07T04:02:58;100259.38;;;14.68;100.00
75192;BME280;63771;52.580;9.734;2023-08-07T04:05:24;100263.63;;;14.67;100.00
75192;BME280;63771;52.580;9.734;2023-08-07T04:07:49;100258.81;;;14.58;100.00
75192;BME280;63771;52.580;9.734;2023-08-07T04:10:15;100266.44;;;14.57;100.00
75192;BME280;63771;52.580;9.734;2023-08-07T04:12:40;100267.41;;;14.59;100.00
75192;BME280;63771;52.580;9.734;2023-08-07T04:15:06;100269.25;;;14.61;100.00
75192;BME280;63771;52.580;9.734;2023-08-07T04:17:32;100273.72;;;14.64;100.00
75192;BME280;63771;52.580;9.734;2023-08-07T04:19:57;100274.59;;;14.65;100.00
75192;BME280;63771;52.580;9.734;2023-08-07T04:22:22;100279.03;;;14.67;100.00
75192;BME280;63771;52.580;9.734;2023-08-07T04:24:48;100269.63;;;14.68;100.00
75192;BME280;63771;52.580;9.734;2023-08-07T04:27:13;100279.19;;;14.70;100.00
75192;BME280;63771;52.580;9.734;2023-08-07T04:29:38;100276.34;;;14.66;100.00
75192;BME280;63771;52.580;9.734;2023-08-07T04:32:04;100279.72;;;14.65;100.00
75192;BME280;63771;52.580;9.734;2023-08-07T04:34:30;100284.66;;;14.61;100.00
75192;BME280;63771;52.580;9.734;2023-08-07T04:36:55;100286.47;;;14.63;100.00
75192;BME280;63771;52.580;9.734;2023-08-07T04:39:21;100284.66;;;14.61;100.00
75192;BME280;63771;52.580;9.734;2023-08-07T04:41:47;100282.22;;;14.63;100.00
75192;BME280;63771;52.580;9.734;2023-08-07T04:44:15;100284.31;;;14.55;100.00
75192;BME280;63771;52.580;9.734;2023-08-07T04:46:40;100282.63;;;14.56;100.00
75192;BME280;63771;52.580;9.734;2023-08-07T04:49:06;100294.06;;;14.61;100.00
75192;BME280;63771;52.580;9.734;2023-08-07T04:51:31;100290.78;;;14.64;100.00
75192;BME280;63771;52.580;9.734;2023-08-07T04:53:57;100293.16;;;14.60;100.00
75192;BME280;63771;52.580;9.734;2023-08-07T04:56:22;100302.03;;;14.66;100.00
75192;BME280;63771;52.580;9.734;2023-08-07T04:58:47;100293.53;;;14.67;100.00
75192;BME280;63771;52.580;9.734;2023-08-07T05:01:13;100297.78;;;14.66;100.00
75192;BME280;63771;52.580;9.734;2023-08-07T05:03:38;100300.06;;;14.61;100.00
75192;BME280;63771;52.580;9.734;2023-08-07T05:06:03;100291.59;;;14.63;100.00
75192;BME280;63771;52.580;9.734;2023-08-07T05:08:29;100293.53;;;14.67;100.00
75192;BME280;63771;52.580;9.734;2023-08-07T05:10:54;100298.66;;;14.67;100.00
75192;BME280;63771;52.580;9.734;2023-08-07T05:13:20;100300.25;;;14.65;100.00
75192;BME280;63771;52.580;9.734;2023-08-07T05:15:47;100310.72;;;14.68;100.00
75192;BME280;63771;52.580;9.734;2023-08-07T05:18:12;100314.19;;;14.68;100.00
75192;BME280;63771;52.580;9.734;2023-08-07T05:20:38;100314.06;;;14.67;100.00
75192;BME280;63771;52.580;9.734;2023-08-07T05:23:03;100314.97;;;14.67;100.00
75192;BME280;63771;52.580;9.734;2023-08-07T05:25:28;100317.63;;;14.69;100.00
75192;BME280;63771;52.580;9.734;2023-08-07T05:27:54;100324.63;;;14.71;100.00
75192;BME280;63771;52.580;9.734;2023-08-07T05:30:19;100322.03;;;14.71;100.00
75192;BME280;63771;52.580;9.734;2023-08-07T05:32:44;100326.50;;;14.74;100.00
75192;BME280;63771;52.580;9.734;2023-08-07T05:35:10;100329.84;;;14.73;100.00
75192;BME280;63771;52.580;9.734;2023-08-07T05:37:35;100328.97;;;14.72;100.00
75192;BME280;63771;52.580;9.734;2023-08-07T05:40:05;100334.13;;;14.72;100.00
75192;BME280;63771;52.580;9.734;2023-08-07T05:42:30;100333.19;;;14.72;100.00
75192;BME280;63771;52.580;9.734;2023-08-07T05:44:56;100345.88;;;14.69;100.00
75192;BME280;63771;52.580;9.734;2023-08-07T05:47:21;100337.56;;;14.73;100.00
75192;BME280;63771;52.580;9.734;2023-08-07T05:49:46;100340.13;;;14.73;100.00
75192;BME280;63771;52.580;9.734;2023-08-07T05:52:12;100338.72;;;14.78;100.00
75192;BME280;63771;52.580;9.734;2023-08-07T05:54:37;100338.00;;;14.80;100.00
75192;BME280;63771;52.580;9.734;2023-08-07T05:57:03;100337.13;;;14.80;100.00
75192;BME280;63771;52.580;9.734;2023-08-07T05:59:28;100337.31;;;14.83;100.00
75192;BME280;63771;52.580;9.734;2023-08-07T06:01:53;100334.56;;;14.80;100.00
75192;BME280;63771;52.580;9.734;2023-08-07T06:04:21;100336.38;;;14.82;100.00
75192;BME280;63771;52.580;9.734;2023-08-07T06:06:47;100342.34;;;14.81;100.00
75192;BME280;63771;52.580;9.734;2023-08-07T06:09:12;100337.31;;;14.83;100.00
75192;BME280;63771;52.580;9.734;2023-08-07T06:11:39;100337.84;;;14.77;100.00
75192;BME280;63771;52.580;9.734;2023-08-07T06:14:05;100341.91;;;14.74;100.00
75192;BME280;63771;52.580;9.734;2023-08-07T06:16:30;100345.97;;;14.70;100.00
75192;BME280;63771;52.580;9.734;2023-08-07T06:18:55;100339.94;;;14.70;100.00
75192;BME280;63771;52.580;9.734;2023-08-07T06:21:21;100342.59;;;14.71;100.00
75192;BME280;63771;52.580;9.734;2023-08-07T06:23:46;100346.84;;;14.71;100.00
75192;BME280;63771;52.580;9.734;2023-08-07T06:26:12;100351.16;;;14.72;100.00
75192;BME280;63771;52.580;9.734;2023-08-07T06:28:37;100350.56;;;14.76;100.00
75192;BME280;63771;52.580;9.734;2023-08-07T06:31:09;100341.38;;;14.79;100.00
75192;BME280;63771;52.580;9.734;2023-08-07T06:33:35;100352.72;;;14.83;100.00
75192;BME280;63771;52.580;9.734;2023-08-07T06:36:04;100343.50;;;14.86;100.00
75192;BME280;63771;52.580;9.734;2023-08-07T06:38:30;100371.84;;;14.88;100.00
75192;BME280;63771;52.580;9.734;2023-08-07T06:40:56;100346.88;;;14.85;100.00
75192;BME280;63771;52.580;9.734;2023-08-07T06:43:21;100345.19;;;14.86;100.00
75192;BME280;63771;52.580;9.734;2023-08-07T06:45:49;100347.06;;;14.88;100.00
75192;BME280;63771;52.580;9.734;2023-08-07T06:48:14;100345.19;;;14.86;100.00
75192;BME280;63771;52.580;9.734;2023-08-07T06:50:40;100351.31;;;14.88;100.00
75192;BME280;63771;52.580;9.734;2023-08-07T06:53:05;100346.25;;;14.90;100.00
75192;BME280;63771;52.580;9.734;2023-08-07T06:55:30;100348.09;;;14.92;100.00
75192;BME280;63771;52.580;9.734;2023-08-07T06:57:56;100355.28;;;14.98;100.00
75192;BME280;63771;52.580;9.734;2023-08-07T07:00:21;100358.91;;;15.01;100.00
75192;BME280;63771;52.580;9.734;2023-08-07T07:02:47;100364.41;;;15.07;100.00
75192;BME280;63771;52.580;9.734;2023-08-07T07:05:12;100361.75;;;15.06;99.48
75192;BME280;63771;52.580;9.734;2023-08-07T07:07:38;100362.63;;;15.06;100.00
75192;BME280;63771;52.580;9.734;2023-08-07T07:10:04;100358.31;;;15.05;100.00
75192;BME280;63771;52.580;9.734;2023-08-07T07:12:29;100364.31;;;15.06;99.52
75192;BME280;63771;52.580;9.734;2023-08-07T07:14:55;100360.25;;;15.09;99.15
75192;BME280;63771;52.580;9.734;2023-08-07T07:17:20;100358.66;;;15.11;99.48
75192;BME280;63771;52.580;9.734;2023-08-07T07:19:45;100352.72;;;15.12;99.22
75192;BME280;63771;52.580;9.734;2023-08-07T07:22:11;100368.47;;;15.19;99.50
75192;BME280;63771;52.580;9.734;2023-08-07T07:24:36;100362.97;;;15.27;99.43
75192;BME280;63771;52.580;9.734;2023-08-07T07:27:02;100367.59;;;15.33;98.66
75192;BME280;63771;52.580;9.734;2023-08-07T07:29:28;100369.53;;;15.37;97.90
75192;BME280;63771;52.580;9.734;2023-08-07T07:31:53;100365.34;;;15.39;97.70
75192;BME280;63771;52.580;9.734;2023-08-07T07:34:20;100368.13;;;15.42;97.39
75192;BME280;63771;52.580;9.734;2023-08-07T07:36:45;100377.84;;;15.48;97.17
75192;BME280;63771;52.580;9.734;2023-08-07T07:39:11;100377.84;;;15.48;98.19
75192;BME280;63771;52.580;9.734;2023-08-07T07:41:36;100368.47;;;15.48;97.19
75192;BME280;63771;52.580;9.734;2023-08-07T07:44:02;100376.25;;;15.50;97.40
75192;BME280;63771;52.580;9.734;2023-08-07T07:46:27;100387.59;;;15.53;97.21
75192;BME280;63771;52.580;9.734;2023-08-07T07:48:53;100384.22;;;15.54;97.21
75192;BME280;63771;52.580;9.734;2023-08-07T07:51:18;100385.28;;;15.58;96.40
75192;BME280;63771;52.580;9.734;2023-08-07T07:53:43;100390.50;;;15.59;97.05
75192;BME280;63771;52.580;9.734;2023-08-07T07:56:09;100380.41;;;15.62;96.74
75192;BME280;63771;52.580;9.734;2023-08-07T07:58:34;100393.66;;;15.69;96.97
75192;BME280;63771;52.580;9.734;2023-08-07T08:00:59;100387.06;;;15.74;97.72
75192;BME280;63771;52.580;9.734;2023-08-07T08:03:25;100384.84;;;15.80;97.47
75192;BME280;63771;52.580;9.734;2023-08-07T08:05:51;100386.78;;;15.84;96.01
75192;BME280;63771;52.580;9.734;2023-08-07T08:08:16;100386.22;;;15.89;95.82
75192;BME280;63771;52.580;9.734;2023-08-07T08:10:43;100385.84;;;15.98;95.65
75192;BME280;63771;52.580;9.734;2023-08-07T08:13:09;100393.72;;;16.01;94.19
75192;BME280;63771;52.580;9.734;2023-08-07T08:15:35;100393.19;;;16.07;93.66
75192;BME280;63771;52.580;9.734;2023-08-07T08:18:00;100396.19;;;16.14;93.99
75192;BME280;63771;52.580;9.734;2023-08-07T08:20:25;100391.69;;;16.27;92.96
75192;BME280;63771;52.580;9.734;2023-08-07T08:22:51;100404.97;;;16.34;92.00
75192;BME280;63771;52.580;9.734;2023-08-07T08:25:16;100398.28;;;16.38;91.39
75192;BME280;63771;52.580;9.734;2023-08-07T08:27:43;100387.03;;;16.36;89.79
75192;BME280;63771;52.580;9.734;2023-08-07T08:30:08;100378.50;;;16.37;91.82
75192;BME280;63771;52.580;9.734;2023-08-07T08:32:34;100396.28;;;16.32;91.90
75192;BME280;63771;52.580;9.734;2023-08-07T08:34:59;100437.06;;;16.25;95.56
75192;BME280;63771;52.580;9.734;2023-08-07T08:37:25;100442.28;;;15.95;95.54
75192;BME280;63771;52.580;9.734;2023-08-07T08:39:50;100439.03;;;15.53;94.02
75192;BME280;63771;52.580;9.734;2023-08-07T08:42:15;100447.78;;;15.12;96.44
75192;BME280;63771;52.580;9.734;2023-08-07T08:44:47;100445.81;;;14.94;97.79
75192;BME280;63771;52.580;9.734;2023-08-07T08:47:14;100440.28;;;14.87;99.45
75192;BME280;63771;52.580;9.734;2023-08-07T08:50:00;100445.94;;;14.82;99.69
75192;BME280;63771;52.580;9.734;2023-08-07T08:52:26;100450.03;;;14.78;100.00
75192;BME280;63771;52.580;9.734;2023-08-07T08:54:53;100453.50;;;14.79;100.00
75192;BME280;63771;52.580;9.734;2023-08-07T08:57:20;100445.19;;;14.83;100.00
75192;BME280;63771;52.580;9.734;2023-08-07T08:59:45;100452.16;;;14.85;100.00
75192;BME280;63771;52.580;9.734;2023-08-07T09:02:10;100448.28;;;14.92;100.00
75192;BME280;63771;52.580;9.734;2023-08-07T09:04:36;100454.88;;;15.02;100.00
75192;BME280;63771;52.580;9.734;2023-08-07T09:07:02;100452.13;;;15.13;100.00
75192;BME280;63771;52.580;9.734;2023-08-07T09:09:28;100447.88;;;15.29;100.00
75192;BME280;63771;52.580;9.734;2023-08-07T09:11:54;100448.63;;;15.41;100.00
75192;BME280;63771;52.580;9.734;2023-08-07T09:14:24;100449.13;;;15.50;100.00
75192;BME280;63771;52.580;9.734;2023-08-07T09:16:52;100453.22;;;15.61;100.00
75192;BME280;63771;52.580;9.734;2023-08-07T09:19:19;100462.47;;;15.73;100.00
75192;BME280;63771;52.580;9.734;2023-08-07T09:21:44;100469.03;;;15.82;100.00
75192;BME280;63771;52.580;9.734;2023-08-07T09:24:09;100455.78;;;15.91;98.00
75192;BME280;63771;52.580;9.734;2023-08-07T09:26:37;100459.50;;;15.96;96.55
75192;BME280;63771;52.580;9.734;2023-08-07T09:29:03;100469.91;;;15.98;93.90
75192;BME280;63771;52.580;9.734;2023-08-07T09:31:29;100461.25;;;15.97;92.87
75192;BME280;63771;52.580;9.734;2023-08-07T09:34:01;100460.31;;;15.95;91.59
75192;BME280;63771;52.580;9.734;2023-08-07T09:36:30;100456.38;;;16.02;93.81
75192;BME280;63771;52.580;9.734;2023-08-07T09:38:55;100472.00;;;16.05;92.98
75192;BME280;63771;52.580;9.734;2023-08-07T09:41:21;100464.53;;;16.09;93.12
75192;BME280;63771;52.580;9.734;2023-08-07T09:43:46;100464.31;;;16.21;92.62
75192;BME280;63771;52.580;9.734;2023-08-07T09:46:12;100459.13;;;16.36;95.21
75192;BME280;63771;52.580;9.734;2023-08-07T09:48:42;100451.25;;;16.49;90.96
75192;BME280;63771;52.580;9.734;2023-08-07T09:51:08;100444.19;;;16.61;90.58
75192;BME280;63771;52.580;9.734;2023-08-07T09:53:34;100448.84;;;16.68;88.78
75192;BME280;63771;52.580;9.734;2023-08-07T09:56:01;100456.44;;;16.65;88.34
75192;BME280;63771;52.580;9.734;2023-08-07T09:58:26;100465.59;;;16.60;86.68
75192;BME280;63771;52.580;9.734;2023-08-07T10:00:53;100468.31;;;16.47;87.43
75192;BME280;63771;52.580;9.734;2023-08-07T10:03:19;100468.69;;;16.38;89.59
75192;BME280;63771;52.580;9.734;2023-08-07T10:05:45;100472.00;;;16.36;91.90
75192;BME280;63771;52.580;9.734;2023-08-07T10:08:11;100481.72;;;16.25;90.23
75192;BME280;63771;52.580;9.734;2023-08-07T10:10:38;100484.88;;;16.05;94.67
75192;BME280;63771;52.580;9.734;2023-08-07T10:13:04;100486.94;;;15.81;100.00
75192;BME280;63771;52.580;9.734;2023-08-07T10:15:31;100515.09;;;15.50;100.00
75192;BME280;63771;52.580;9.734;2023-08-07T10:17:57;100498.34;;;15.27;100.00
75192;BME280;63771;52.580;9.734;2023-08-07T10:20:24;100500.19;;;15.14;100.00
75192;BME280;63771;52.580;9.734;2023-08-07T10:22:52;100515.13;;;15.07;100.00
75192;BME280;63771;52.580;9.734;2023-08-07T10:25:20;100510.41;;;15.00;100.00
75192;BME280;63771;52.580;9.734;2023-08-07T10:27:47;100508.38;;;14.94;100.00
75192;BME280;63771;52.580;9.734;2023-08-07T10:30:16;100512.22;;;14.87;100.00
75192;BME280;63771;52.580;9.734;2023-08-07T10:32:43;100512.28;;;14.74;100.00
75192;BME280;63771;52.580;9.734;2023-08-07T10:35:09;100514.19;;;14.64;100.00
75192;BME280;63771;52.580;9.734;2023-08-07T10:37:42;100503.72;;;14.60;100.00
75192;BME280;63771;52.580;9.734;2023-08-07T10:40:10;100525.53;;;14.67;100.00
75192;BME280;63771;52.580;9.734;2023-08-07T10:45:18;100520.41;;;14.95;100.00
75192;BME280;63771;52.580;9.734;2023-08-07T10:48:05;100532.94;;;15.04;100.00
75192;BME280;63771;52.580;9.734;2023-08-07T10:50:33;100562.09;;;15.04;100.00
75192;BME280;63771;52.580;9.734;2023-08-07T10:53:00;100552.28;;;14.84;91.97
75192;BME280;63771;52.580;9.734;2023-08-07T10:55:26;100551.53;;;14.58;95.18
75192;BME280;63771;52.580;9.734;2023-08-07T10:57:52;100546.38;;;14.32;99.40
75192;BME280;63771;52.580;9.734;2023-08-07T11:00:25;100550.31;;;14.14;100.00
75192;BME280;63771;52.580;9.734;2023-08-07T11:02:50;100555.78;;;14.05;100.00
75192;BME280;63771;52.580;9.734;2023-08-07T11:05:17;100546.88;;;14.00;100.00
75192;BME280;63771;52.580;9.734;2023-08-07T11:07:42;100538.88;;;14.08;100.00
75192;BME280;63771;52.580;9.734;2023-08-07T11:10:13;100537.13;;;14.21;100.00
75192;BME280;63771;52.580;9.734;2023-08-07T11:12:40;100534.53;;;14.34;100.00
75192;BME280;63771;52.580;9.734;2023-08-07T11:15:06;100532.16;;;14.50;100.00
75192;BME280;63771;52.580;9.734;2023-08-07T11:17:32;100528.28;;;14.70;100.00
75192;BME280;63771;52.580;9.734;2023-08-07T11:19:57;100524.97;;;14.86;100.00
75192;BME280;63771;52.580;9.734;2023-08-07T11:22:23;100520.69;;;15.00;100.00
75192;BME280;63771;52.580;9.734;2023-08-07T11:24:50;100523.84;;;15.09;100.00
75192;BME280;63771;52.580;9.734;2023-08-07T11:27:16;100537.94;;;15.16;100.00
75192;BME280;63771;52.580;9.734;2023-08-07T11:29:41;100525.88;;;15.14;98.27
75192;BME280;63771;52.580;9.734;2023-08-07T11:32:08;100540.31;;;15.12;100.00
75192;BME280;63771;52.580;9.734;2023-08-07T11:34:33;100528.16;;;15.10;98.14
75192;BME280;63771;52.580;9.734;2023-08-07T11:36:59;100533.81;;;15.04;95.47
75192;BME280;63771;52.580;9.734;2023-08-07T11:39:26;100534.50;;;15.02;95.68
75192;BME280;63771;52.580;9.734;2023-08-07T11:41:51;100532.31;;;15.08;98.82
75192;BME280;63771;52.580;9.734;2023-08-07T11:44:20;100544.25;;;15.21;98.30
75192;BME280;63771;52.580;9.734;2023-08-07T11:46:45;100537.44;;;15.36;100.00
75192;BME280;63771;52.580;9.734;2023-08-07T11:49:11;100528.94;;;15.52;99.04
75192;BME280;63771;52.580;9.734;2023-08-07T11:51:37;100546.00;;;15.64;91.54
75192;BME280;63771;52.580;9.734;2023-08-07T11:54:03;100551.09;;;15.78;90.03
75192;BME280;63771;52.580;9.734;2023-08-07T11:56:29;100546.38;;;15.85;90.73
75192;BME280;63771;52.580;9.734;2023-08-07T11:58:54;100538.91;;;15.90;90.41
75192;BME280;63771;52.580;9.734;2023-08-07T12:01:21;100581.69;;;15.88;90.74
75192;BME280;63771;52.580;9.734;2023-08-07T12:03:52;100577.75;;;15.65;90.10
75192;BME280;63771;52.580;9.734;2023-08-07T12:06:18;100600.91;;;15.37;89.17
75192;BME280;63771;52.580;9.734;2023-08-07T12:08:44;100596.03;;;15.13;89.75
75192;BME280;63771;52.580;9.734;2023-08-07T12:11:11;100593.00;;;15.06;90.28
75192;BME280;63771;52.580;9.734;2023-08-07T12:13:44;100610.78;;;15.03;92.27
75192;BME280;63771;52.580;9.734;2023-08-07T12:16:10;100600.81;;;15.07;91.69
75192;BME280;63771;52.580;9.734;2023-08-07T12:18:46;100602.19;;;15.16;91.25
75192;BME280;63771;52.580;9.734;2023-08-07T12:21:17;100599.91;;;15.20;89.89
75192;BME280;63771;52.580;9.734;2023-08-07T12:23:47;100603.72;;;15.27;89.50
75192;BME280;63771;52.580;9.734;2023-08-07T12:26:13;100600.03;;;15.36;88.63
75192;BME280;63771;52.580;9.734;2023-08-07T12:28:38;100591.97;;;15.45;87.58
75192;BME280;63771;52.580;9.734;2023-08-07T12:31:04;100592.63;;;15.56;89.03
75192;BME280;63771;52.580;9.734;2023-08-07T12:33:29;100612.47;;;15.72;88.10
75192;BME280;63771;52.580;9.734;2023-08-07T12:35:55;100595.78;;;15.80;83.08
75192;BME280;63771;52.580;9.734;2023-08-07T12:38:21;100591.25;;;15.90;84.26
75192;BME280;63771;52.580;9.734;2023-08-07T12:40:46;100589.16;;;15.98;82.82
75192;BME280;63771;52.580;9.734;2023-08-07T12:43:12;100600.41;;;16.00;79.21
75192;BME280;63771;52.580;9.734;2023-08-07T12:45:37;100604.41;;;15.95;79.19
75192;BME280;63771;52.580;9.734;2023-08-07T12:48:03;100598.19;;;15.91;78.46